Time;durP1;ratioP1;P1;durP2;ratioP2;P2;SDS_P1;SDS_P2;PMS_P1;PMS_P2;Temp;Humidity;BMP_temperature;BMP_pressure;BME280_temperature;BME280_humidity;BME280_pressure;Samples;Min_cycle;Max_cycle;Signal;HPM_P1;HPM_P2
2022/01/01 00:00:30;;;;;;;2.35;2.15;;;;;;;;;;5028623;28;20034;-74
2022/01/01 00:02:56;;;;;;;6.07;3.75;;;;;;;;;;5027122;28;20120;-74
2022/01/01 00:05:22;;;;;;;3.55;3.28;;;;;;;;;;5029493;28;20037;-75
2022/01/01 00:07:48;;;;;;;5.53;2.47;;;;;;;;;;5026813;28;20599;-74
2022/01/01 00:10:14;;;;;;;2.70;2.50;;;;;;;;;;5028652;28;20032;-74
2022/01/01 00:12:46;;;;;;;3.95;2.10;;;;;;;;;;5027677;28;20060;-74
2022/01/01 00:15:12;;;;;;;1.48;1.38;;;;;;;;;;5019106;28;20038;-74
2022/01/01 00:17:38;;;;;;;0.93;0.93;;;;;;;;;;5026259;28;20025;-74
2022/01/01 00:20:04;;;;;;;1.85;1.73;;;;;;;;;;5026606;28;20041;-74
2022/01/01 00:22:30;;;;;;;2.05;1.23;;;;;;;;;;5027674;28;20045;-74
2022/01/01 00:24:56;;;;;;;2.03;1.20;;;;;;;;;;5026802;28;20490;-74
2022/01/01 00:27:22;;;;;;;5.10;2.65;;;;;;;;;;5026996;28;20029;-73
2022/01/01 00:29:48;;;;;;;2.28;1.33;;;;;;;;;;5029020;28;20055;-73
2022/01/01 00:32:13;;;;;;;1.02;1.02;;;;;;;;;;5027646;28;20093;-73
2022/01/01 00:34:39;;;;;;;4.55;1.83;;;;;;;;;;5017660;28;20025;-75
2022/01/01 00:37:05;;;;;;;1.13;0.60;;;;;;;;;;5021963;28;20546;-72
2022/01/01 00:39:32;;;;;;;0.40;0.40;;;;;;;;;;5022908;28;20032;-73
2022/01/01 00:41:57;;;;;;;4.32;2.45;;;;;;;;;;5021683;28;20804;-73
2022/01/01 00:44:24;;;;;;;1.23;1.13;;;;;;;;;;5027100;28;20033;-73
2022/01/01 00:46:50;;;;;;;1.77;1.13;;;;;;;;;;5022395;28;20038;-73
2022/01/01 00:49:16;;;;;;;3.00;1.10;;;;;;;;;;5026391;28;20032;-75
2022/01/01 00:51:42;;;;;;;0.93;0.75;;;;;;;;;;5020943;28;20029;-74
2022/01/01 00:54:08;;;;;;;0.80;0.63;;;;;;;;;;5027711;28;20022;-73
2022/01/01 00:56:34;;;;;;;2.28;1.15;;;;;;;;;;5023122;28;20377;-76
2022/01/01 00:59:00;;;;;;;2.38;1.08;;;;;;;;;;5025635;28;20087;-69
2022/01/01 01:01:26;;;;;;;0.63;0.50;;;;;;;;;;5018813;28;20124;-74
2022/01/01 01:03:52;;;;;;;1.35;1.27;;;;;;;;;;5024775;28;20018;-74
2022/01/01 01:06:18;;;;;;;0.28;0.28;;;;;;;;;;5029135;28;20108;-73
2022/01/01 01:08:44;;;;;;;0.30;0.30;;;;;;;;;;5023753;28;20033;-73
2022/01/01 01:11:10;;;;;;;0.38;0.38;;;;;;;;;;5023652;28;20037;-73
2022/01/01 01:13:39;;;;;;;0.38;0.38;;;;;;;;;;5023019;28;20021;-73
2022/01/01 01:16:05;;;;;;;0.22;0.22;;;;;;;;;;5025109;28;20505;-73
2022/01/01 01:18:31;;;;;;;0.50;0.50;;;;;;;;;;5026540;28;20112;-73
2022/01/01 01:20:57;;;;;;;0.52;0.52;;;;;;;;;;5024094;28;20092;-73
2022/01/01 01:23:23;;;;;;;0.95;0.30;;;;;;;;;;5024137;28;20054;-73
2022/01/01 01:25:49;;;;;;;3.88;2.15;;;;;;;;;;5026343;28;20136;-73
2022/01/01 01:28:15;;;;;;;1.10;0.75;;;;;;;;;;5022986;28;20026;-73
2022/01/01 01:30:42;;;;;;;2.38;0.82;;;;;;;;;;5024955;28;20030;-72
2022/01/01 01:33:08;;;;;;;2.33;1.52;;;;;;;;;;5023945;28;20104;-73
2022/01/01 01:35:35;;;;;;;0.40;0.40;;;;;;;;;;5024736;28;20032;-73
2022/01/01 01:38:01;;;;;;;0.47;0.47;;;;;;;;;;5025729;28;20049;-73
2022/01/01 01:40:28;;;;;;;0.47;0.47;;;;;;;;;;5026138;28;20045;-73
2022/01/01 01:42:54;;;;;;;1.02;0.80;;;;;;;;;;5019174;28;20036;-72
2022/01/01 01:45:21;;;;;;;0.77;0.75;;;;;;;;;;5024426;28;20397;-72
2022/01/01 01:47:48;;;;;;;0.85;0.82;;;;;;;;;;5024242;28;20125;-72
2022/01/01 01:50:15;;;;;;;0.52;0.52;;;;;;;;;;5031082;28;20026;-73
2022/01/01 01:52:44;;;;;;;0.47;0.47;;;;;;;;;;5023660;28;20052;-72
2022/01/01 01:55:10;;;;;;;0.77;0.70;;;;;;;;;;5022746;28;20034;-73
2022/01/01 01:57:39;;;;;;;1.27;0.60;;;;;;;;;;5024166;28;20037;-73
2022/01/01 02:00:09;;;;;;;1.02;0.93;;;;;;;;;;5027614;28;20029;-73
2022/01/01 02:02:35;;;;;;;1.88;1.38;;;;;;;;;;5027198;28;20033;-73
2022/01/01 02:05:01;;;;;;;2.15;1.05;;;;;;;;;;5028228;28;20025;-73
2022/01/01 02:07:27;;;;;;;5.53;1.05;;;;;;;;;;5026112;28;20485;-73
2022/01/01 02:09:53;;;;;;;2.78;1.13;;;;;;;;;;5022376;28;20046;-73
2022/01/01 02:12:22;;;;;;;0.20;0.20;;;;;;;;;;5025507;28;20140;-73
2022/01/01 02:17:14;;;;;;;0.40;0.40;;;;;;;;;;5026949;28;20055;-73
2022/01/01 02:19:51;;;;;;;0.47;0.47;;;;;;;;;;5021382;28;20038;-74
2022/01/01 02:22:17;;;;;;;2.38;0.85;;;;;;;;;;5024653;28;20049;-73
2022/01/01 02:24:43;;;;;;;1.35;0.77;;;;;;;;;;5024446;28;20259;-74
2022/01/01 02:27:09;;;;;;;2.58;1.05;;;;;;;;;;5028881;28;20048;-74
2022/01/01 02:29:36;;;;;;;2.42;1.05;;;;;;;;;;5026446;28;20018;-73
2022/01/01 02:32:02;;;;;;;0.30;0.30;;;;;;;;;;5027891;28;20017;-73
2022/01/01 02:34:28;;;;;;;1.05;0.98;;;;;;;;;;5022885;28;20113;-73
2022/01/01 02:36:54;;;;;;;1.42;1.33;;;;;;;;;;5026071;28;20164;-73
2022/01/01 02:39:22;;;;;;;0.65;0.47;;;;;;;;;;5027024;28;20079;-73
2022/01/01 02:41:50;;;;;;;4.97;1.33;;;;;;;;;;5022594;28;20576;-73
2022/01/01 02:44:32;;;;;;;1.17;1.05;;;;;;;;;;5027768;28;20049;-73
2022/01/01 02:46:58;;;;;;;0.35;0.35;;;;;;;;;;5027991;28;20274;-74
2022/01/01 02:49:24;;;;;;;1.58;0.85;;;;;;;;;;5032412;28;20554;-74
2022/01/01 02:51:50;;;;;;;0.47;0.47;;;;;;;;;;5026062;28;20108;-75
2022/01/01 02:54:16;;;;;;;8.25;1.55;;;;;;;;;;5030675;28;20036;-75
2022/01/01 02:56:42;;;;;;;0.98;0.98;;;;;;;;;;5022608;28;20032;-74
2022/01/01 02:59:08;;;;;;;0.40;0.40;;;;;;;;;;5028710;28;20209;-75
2022/01/01 03:01:34;;;;;;;1.15;0.68;;;;;;;;;;5025531;28;20095;-73
2022/01/01 03:04:00;;;;;;;0.68;0.68;;;;;;;;;;5029781;28;20068;-75
2022/01/01 03:06:28;;;;;;;0.40;0.40;;;;;;;;;;5024315;28;20109;-75
2022/01/01 03:08:56;;;;;;;0.98;0.88;;;;;;;;;;5025076;28;20029;-74
2022/01/01 03:11:22;;;;;;;1.30;0.65;;;;;;;;;;5028201;28;20404;-74
2022/01/01 03:13:48;;;;;;;8.98;1.08;;;;;;;;;;5026350;28;20026;-74
2022/01/01 03:16:14;;;;;;;0.45;0.45;;;;;;;;;;5022372;28;20033;-74
2022/01/01 03:18:40;;;;;;;0.73;0.73;;;;;;;;;;5028280;28;20036;-75
2022/01/01 03:21:06;;;;;;;1.42;1.33;;;;;;;;;;5027067;28;20045;-74
2022/01/01 03:23:32;;;;;;;0.73;0.73;;;;;;;;;;5023755;28;20053;-75
2022/01/01 03:25:59;;;;;;;3.13;1.23;;;;;;;;;;5026017;28;20048;-78
2022/01/01 03:28:25;;;;;;;1.23;1.10;;;;;;;;;;5030593;28;20484;-77
2022/01/01 03:30:51;;;;;;;0.98;0.98;;;;;;;;;;5025847;28;20048;-71
2022/01/01 03:33:17;;;;;;;0.38;0.38;;;;;;;;;;5024359;28;20025;-77
2022/01/01 03:35:43;;;;;;;0.00;0.00;;;;;;;;;;5022932;28;20038;-74
2022/01/01 03:38:09;;;;;;;0.43;0.43;;;;;;;;;;5025233;28;20042;-78
2022/01/01 03:40:35;;;;;;;1.02;1.02;;;;;;;;;;5023937;28;20051;-76
2022/01/01 03:43:01;;;;;;;4.22;2.60;;;;;;;;;;5026838;28;20029;-75
2022/01/01 03:45:27;;;;;;;1.08;0.45;;;;;;;;;;5025469;28;20042;-76
2022/01/01 03:47:53;;;;;;;0.38;0.38;;;;;;;;;;5021608;28;20034;-75
2022/01/01 03:50:19;;;;;;;0.68;0.68;;;;;;;;;;5022891;28;20091;-76
2022/01/01 03:52:45;;;;;;;1.75;1.30;;;;;;;;;;5031055;28;20486;-74
2022/01/01 03:55:12;;;;;;;1.45;1.35;;;;;;;;;;5031900;28;20033;-75
2022/01/01 03:57:38;;;;;;;0.40;0.40;;;;;;;;;;5020166;28;20029;-75
2022/01/01 04:00:06;;;;;;;1.20;1.10;;;;;;;;;;5021877;28;20057;-75
2022/01/01 04:02:32;;;;;;;2.53;0.65;;;;;;;;;;5026177;28;20021;-75
2022/01/01 04:04:58;;;;;;;2.00;1.42;;;;;;;;;;5024948;28;20053;-75
2022/01/01 04:07:24;;;;;;;1.25;0.77;;;;;;;;;;5026630;28;20063;-74
2022/01/01 04:09:50;;;;;;;2.60;1.10;;;;;;;;;;5024528;28;20575;-74
2022/01/01 04:12:16;;;;;;;0.45;0.45;;;;;;;;;;5035028;28;20017;-74
2022/01/01 04:14:42;;;;;;;0.43;0.43;;;;;;;;;;5035537;28;20029;-74
2022/01/01 04:17:10;;;;;;;0.88;0.88;;;;;;;;;;5028306;28;20029;-74
2022/01/01 04:19:39;;;;;;;0.75;0.75;;;;;;;;;;5023942;28;20048;-74
2022/01/01 04:22:06;;;;;;;0.40;0.40;;;;;;;;;;5025039;28;20068;-74
2022/01/01 04:24:32;;;;;;;0.30;0.30;;;;;;;;;;5024784;28;20041;-74
2022/01/01 04:26:58;;;;;;;0.32;0.32;;;;;;;;;;5027004;28;20048;-74
2022/01/01 04:29:24;;;;;;;3.03;0.70;;;;;;;;;;5027453;28;20033;-74
2022/01/01 04:31:49;;;;;;;0.22;0.22;;;;;;;;;;5034554;28;20181;-74
2022/01/01 04:34:15;;;;;;;1.85;1.65;;;;;;;;;;5023092;28;20481;-75
2022/01/01 04:36:49;;;;;;;1.13;0.63;;;;;;;;;;5031910;28;20034;-75
2022/01/01 04:39:15;;;;;;;0.65;0.65;;;;;;;;;;5026502;28;20033;-75
2022/01/01 04:41:41;;;;;;;3.65;1.25;;;;;;;;;;5017329;28;20026;-75
2022/01/01 04:44:07;;;;;;;0.73;0.73;;;;;;;;;;5022436;28;20546;-75
2022/01/01 04:46:33;;;;;;;0.93;0.70;;;;;;;;;;5026454;28;20022;-75
2022/01/01 04:48:59;;;;;;;1.13;0.70;;;;;;;;;;5022155;28;20163;-75
2022/01/01 04:51:25;;;;;;;0.55;0.52;;;;;;;;;;5030194;28;20013;-76
2022/01/01 04:53:57;;;;;;;3.65;0.65;;;;;;;;;;5025898;28;20029;-75
2022/01/01 04:56:24;;;;;;;0.30;0.30;;;;;;;;;;5027341;28;20021;-75
2022/01/01 04:58:50;;;;;;;0.93;0.93;;;;;;;;;;5027802;28;20029;-75
2022/01/01 05:01:16;;;;;;;0.35;0.35;;;;;;;;;;5038119;28;20292;-74
2022/01/01 05:03:41;;;;;;;0.40;0.40;;;;;;;;;;5022033;28;20123;-75
2022/01/01 05:06:07;;;;;;;1.02;0.50;;;;;;;;;;5027739;28;20056;-75
2022/01/01 05:08:33;;;;;;;2.60;1.10;;;;;;;;;;5021560;28;20698;-75
2022/01/01 05:10:59;;;;;;;0.35;0.35;;;;;;;;;;5019057;28;20370;-75
2022/01/01 05:13:25;;;;;;;0.57;0.57;;;;;;;;;;5025353;28;20120;-75
2022/01/01 05:15:52;;;;;;;1.25;1.15;;;;;;;;;;5028183;28;20060;-75
2022/01/01 05:18:18;;;;;;;14.93;2.00;;;;;;;;;;5021717;28;20037;-74
2022/01/01 05:20:47;;;;;;;0.73;0.73;;;;;;;;;;5028055;28;20034;-75
2022/01/01 05:23:12;;;;;;;1.10;0.63;;;;;;;;;;5025602;28;20042;-75
2022/01/01 05:25:38;;;;;;;1.05;1.02;;;;;;;;;;5028891;28;20025;-75
2022/01/01 05:28:04;;;;;;;0.80;0.75;;;;;;;;;;5022355;28;20026;-75
2022/01/01 05:30:30;;;;;;;4.43;1.27;;;;;;;;;;5029853;28;20061;-75
2022/01/01 05:32:58;;;;;;;2.88;1.55;;;;;;;;;;5031242;28;20184;-75
2022/01/01 05:35:24;;;;;;;2.22;1.10;;;;;;;;;;5025020;28;20025;-75
2022/01/01 05:37:50;;;;;;;0.65;0.65;;;;;;;;;;5025736;28;20238;-75
2022/01/01 05:40:16;;;;;;;0.52;0.52;;;;;;;;;;5030158;28;20389;-75
2022/01/01 05:42:42;;;;;;;20.65;3.15;;;;;;;;;;5025437;28;20033;-74
2022/01/01 05:45:08;;;;;;;0.80;0.80;;;;;;;;;;5025690;28;20519;-75
2022/01/01 05:47:34;;;;;;;1.95;1.55;;;;;;;;;;5032709;28;20029;-74
2022/01/01 05:50:00;;;;;;;11.88;1.13;;;;;;;;;;5027202;28;20440;-74
2022/01/01 05:52:26;;;;;;;9.23;1.17;;;;;;;;;;5032605;28;20029;-75
2022/01/01 05:54:52;;;;;;;0.90;0.90;;;;;;;;;;5031084;28;20033;-75
2022/01/01 05:57:18;;;;;;;3.83;0.47;;;;;;;;;;5032731;28;20044;-75
2022/01/01 05:59:44;;;;;;;0.55;0.55;;;;;;;;;;5030924;28;20475;-75
2022/01/01 06:02:13;;;;;;;0.55;0.55;;;;;;;;;;5026294;28;20030;-75
2022/01/01 06:04:39;;;;;;;0.28;0.28;;;;;;;;;;5030315;28;20034;-75
2022/01/01 06:07:05;;;;;;;1.15;1.10;;;;;;;;;;5031284;28;20087;-75
2022/01/01 06:09:31;;;;;;;2.40;1.25;;;;;;;;;;5029913;28;20435;-75
2022/01/01 06:11:56;;;;;;;5.57;1.67;;;;;;;;;;5030107;28;20041;-75
2022/01/01 06:14:22;;;;;;;2.75;1.13;;;;;;;;;;5032450;28;20037;-75
2022/01/01 06:16:48;;;;;;;2.67;2.20;;;;;;;;;;5033005;28;20503;-75
2022/01/01 06:19:14;;;;;;;0.63;0.63;;;;;;;;;;5037288;28;20026;-75
2022/01/01 06:21:40;;;;;;;1.88;1.17;;;;;;;;;;5026349;28;20446;-74
2022/01/01 06:24:07;;;;;;;1.38;1.27;;;;;;;;;;5028344;28;20038;-75
2022/01/01 06:26:33;;;;;;;1.17;1.10;;;;;;;;;;5027415;28;20029;-75
2022/01/01 06:28:59;;;;;;;1.25;1.15;;;;;;;;;;5034073;28;20051;-75
2022/01/01 06:31:25;;;;;;;1.08;0.98;;;;;;;;;;5035311;28;20438;-75
2022/01/01 06:33:51;;;;;;;1.65;1.33;;;;;;;;;;5026520;28;20022;-74
2022/01/01 06:36:17;;;;;;;2.13;1.77;;;;;;;;;;5025492;28;20045;-74
2022/01/01 06:38:46;;;;;;;2.67;1.27;;;;;;;;;;5041156;28;20519;-75
2022/01/01 06:41:12;;;;;;;1.40;1.00;;;;;;;;;;5034872;28;20029;-75
2022/01/01 06:43:38;;;;;;;1.58;1.05;;;;;;;;;;5031000;28;20029;-75
2022/01/01 06:46:05;;;;;;;0.98;0.98;;;;;;;;;;5029089;28;20076;-75
2022/01/01 06:48:31;;;;;;;1.58;1.30;;;;;;;;;;5026588;28;20481;-75
2022/01/01 06:50:56;;;;;;;0.47;0.47;;;;;;;;;;5026289;28;20041;-75
2022/01/01 06:53:23;;;;;;;0.73;0.65;;;;;;;;;;5031914;28;20554;-74
2022/01/01 06:55:48;;;;;;;7.75;1.83;;;;;;;;;;5028684;28;20064;-74
2022/01/01 06:58:14;;;;;;;0.73;0.73;;;;;;;;;;5018738;28;20057;-75
2022/01/01 07:00:40;;;;;;;1.02;0.98;;;;;;;;;;5030734;28;20031;-75
2022/01/01 07:03:07;;;;;;;1.13;1.13;;;;;;;;;;5029498;28;20111;-74
2022/01/01 07:05:33;;;;;;;0.40;0.40;;;;;;;;;;5029084;28;20171;-75
2022/01/01 07:07:58;;;;;;;1.35;0.75;;;;;;;;;;5016754;28;20481;-75
2022/01/01 07:10:24;;;;;;;12.85;2.40;;;;;;;;;;5038497;28;20029;-75
2022/01/01 07:12:50;;;;;;;0.32;0.32;;;;;;;;;;5027726;28;20033;-74
2022/01/01 07:15:16;;;;;;;1.38;0.98;;;;;;;;;;5037169;28;20558;-75
2022/01/01 07:17:43;;;;;;;1.95;1.35;;;;;;;;;;5024703;28;20481;-75
2022/01/01 07:20:09;;;;;;;4.50;1.05;;;;;;;;;;5023817;28;20029;-75
2022/01/01 07:22:39;;;;;;;1.33;1.17;;;;;;;;;;5021772;28;20049;-75
2022/01/01 07:25:06;;;;;;;0.52;0.47;;;;;;;;;;5025883;28;20128;-75
2022/01/01 07:27:32;;;;;;;1.23;0.93;;;;;;;;;;5024758;28;20496;-75
2022/01/01 07:29:57;;;;;;;0.32;0.32;;;;;;;;;;5027871;28;20022;-75
2022/01/01 07:32:24;;;;;;;0.60;0.60;;;;;;;;;;5024265;28;20029;-75
2022/01/01 07:34:50;;;;;;;1.42;1.33;;;;;;;;;;5024874;28;20029;-75
2022/01/01 07:37:16;;;;;;;0.63;0.63;;;;;;;;;;5020915;28;20084;-75
2022/01/01 07:39:42;;;;;;;0.52;0.52;;;;;;;;;;5025831;28;20034;-75
2022/01/01 07:42:08;;;;;;;0.63;0.63;;;;;;;;;;5019682;28;20038;-75
2022/01/01 07:44:34;;;;;;;0.73;0.65;;;;;;;;;;5034576;28;20508;-75
2022/01/01 07:47:01;;;;;;;0.63;0.63;;;;;;;;;;5026052;28;20044;-75
2022/01/01 07:49:26;;;;;;;0.68;0.68;;;;;;;;;;5026761;28;20588;-75
2022/01/01 07:51:52;;;;;;;2.38;1.17;;;;;;;;;;5025052;28;20018;-75
2022/01/01 07:54:18;;;;;;;0.68;0.43;;;;;;;;;;5021363;28;20049;-76
2022/01/01 07:56:44;;;;;;;0.43;0.43;;;;;;;;;;5030036;28;20022;-75
2022/01/01 07:59:10;;;;;;;3.70;1.33;;;;;;;;;;5036077;28;20025;-75
2022/01/01 08:01:36;;;;;;;1.23;0.95;;;;;;;;;;5033475;28;20060;-75
2022/01/01 08:04:02;;;;;;;0.95;0.70;;;;;;;;;;5020211;28;20260;-76
2022/01/01 08:06:31;;;;;;;1.92;1.30;;;;;;;;;;5022007;28;20028;-75
2022/01/01 08:08:57;;;;;;;0.52;0.52;;;;;;;;;;5023845;28;20032;-76
2022/01/01 08:11:24;;;;;;;2.05;1.58;;;;;;;;;;5032192;28;20392;-76
2022/01/01 08:13:50;;;;;;;1.15;0.47;;;;;;;;;;5019496;28;20018;-75
2022/01/01 08:16:16;;;;;;;0.45;0.45;;;;;;;;;;5014783;28;20059;-75
2022/01/01 08:18:42;;;;;;;0.80;0.70;;;;;;;;;;5032601;28;20076;-75
2022/01/01 08:21:08;;;;;;;0.85;0.85;;;;;;;;;;5028650;28;20033;-75
2022/01/01 08:23:34;;;;;;;0.25;0.25;;;;;;;;;;5021504;28;20076;-75
2022/01/01 08:26:00;;;;;;;2.78;1.20;;;;;;;;;;5028085;28;20512;-75
2022/01/01 08:28:26;;;;;;;8.43;1.95;;;;;;;;;;5033612;28;20029;-75
2022/01/01 08:30:52;;;;;;;0.90;0.90;;;;;;;;;;5024664;28;20033;-75
2022/01/01 08:33:18;;;;;;;0.57;0.57;;;;;;;;;;5025484;28;20071;-75
2022/01/01 08:35:44;;;;;;;0.85;0.77;;;;;;;;;;5019282;28;20025;-74
2022/01/01 08:38:10;;;;;;;1.23;1.13;;;;;;;;;;5025795;28;20033;-74
2022/01/01 08:40:36;;;;;;;1.67;1.10;;;;;;;;;;5026158;28;20112;-74
2022/01/01 08:43:02;;;;;;;1.58;0.93;;;;;;;;;;5021251;28;20033;-71
2022/01/01 08:45:28;;;;;;;0.52;0.52;;;;;;;;;;5024999;28;20037;-71
2022/01/01 08:47:54;;;;;;;4.35;1.65;;;;;;;;;;5017812;28;20029;-76
2022/01/01 08:50:20;;;;;;;0.95;0.70;;;;;;;;;;5023452;28;20101;-75
2022/01/01 08:52:46;;;;;;;8.95;3.10;;;;;;;;;;5024835;28;20088;-70
2022/01/01 08:55:12;;;;;;;6.05;3.13;;;;;;;;;;5025768;28;20388;-73
2022/01/01 08:57:38;;;;;;;0.82;0.82;;;;;;;;;;5024633;28;20035;-72
2022/01/01 09:00:06;;;;;;;0.32;0.32;;;;;;;;;;5027816;28;20037;-72
2022/01/01 09:02:32;;;;;;;1.77;1.40;;;;;;;;;;5029721;28;20437;-73
2022/01/01 09:04:58;;;;;;;0.45;0.45;;;;;;;;;;5017478;28;20038;-72
2022/01/01 09:07:30;;;;;;;1.13;0.95;;;;;;;;;;5033317;28;20037;-74
2022/01/01 09:10:00;;;;;;;0.90;0.90;;;;;;;;;;5021308;28;20026;-73
2022/01/01 09:12:26;;;;;;;1.00;1.00;;;;;;;;;;5019729;28;20026;-73
2022/01/01 09:14:52;;;;;;;0.68;0.68;;;;;;;;;;5024659;28;20128;-73
2022/01/01 09:17:18;;;;;;;0.60;0.60;;;;;;;;;;5022136;28;20030;-74
2022/01/01 09:19:44;;;;;;;0.95;0.77;;;;;;;;;;5029071;28;20041;-72
2022/01/01 09:22:10;;;;;;;4.32;0.90;;;;;;;;;;5022172;28;20049;-73
2022/01/01 09:24:36;;;;;;;0.28;0.28;;;;;;;;;;5027450;28;20033;-73
2022/01/01 09:27:03;;;;;;;0.73;0.73;;;;;;;;;;5019037;28;20033;-73
2022/01/01 09:29:29;;;;;;;0.40;0.40;;;;;;;;;;5024603;28;20022;-73
2022/01/01 09:31:55;;;;;;;0.82;0.82;;;;;;;;;;5025933;28;20033;-77
2022/01/01 09:34:21;;;;;;;1.38;1.20;;;;;;;;;;5022577;28;20076;-73
2022/01/01 09:36:49;;;;;;;1.15;1.02;;;;;;;;;;5023423;28;20384;-73
2022/01/01 09:39:15;;;;;;;5.28;0.82;;;;;;;;;;5032285;28;20083;-73
2022/01/01 09:41:43;;;;;;;1.38;1.30;;;;;;;;;;5037707;28;20498;-73
2022/01/01 09:44:12;;;;;;;1.58;0.82;;;;;;;;;;5021532;28;20038;-74
2022/01/01 09:46:39;;;;;;;1.30;1.27;;;;;;;;;;5024895;28;20108;-73
2022/01/01 09:49:05;;;;;;;1.58;1.48;;;;;;;;;;5026548;28;20030;-73
2022/01/01 09:51:31;;;;;;;0.17;0.17;;;;;;;;;;5021510;28;20676;-73
2022/01/01 09:53:57;;;;;;;5.00;2.65;;;;;;;;;;5027186;28;20072;-71
2022/01/01 09:56:23;;;;;;;1.40;0.55;;;;;;;;;;5028443;28;20392;-71
2022/01/01 09:58:49;;;;;;;1.85;1.15;;;;;;;;;;5024734;28;20029;-74
2022/01/01 10:01:15;;;;;;;4.03;0.95;;;;;;;;;;5023939;28;20102;-73
2022/01/01 10:03:50;;;;;;;1.55;1.25;;;;;;;;;;5029251;28;20396;-73
2022/01/01 10:06:17;;;;;;;4.05;1.52;;;;;;;;;;5024515;28;20441;-73
2022/01/01 10:08:47;;;;;;;8.00;2.10;;;;;;;;;;5017550;28;20030;-73
2022/01/01 10:11:16;;;;;;;0.35;0.22;;;;;;;;;;5020208;28;20055;-73
2022/01/01 10:13:42;;;;;;;2.65;0.63;;;;;;;;;;5018966;28;20770;-73
2022/01/01 10:16:09;;;;;;;4.63;1.83;;;;;;;;;;5027499;28;20014;-73
2022/01/01 10:18:37;;;;;;;2.95;1.33;;;;;;;;;;5029795;28;20033;-73
2022/01/01 10:21:04;;;;;;;2.25;0.95;;;;;;;;;;5027400;28;20072;-73
2022/01/01 10:23:32;;;;;;;3.30;0.75;;;;;;;;;;5028905;28;20052;-73
2022/01/01 10:28:55;;;;;;;1.42;0.98;;;;;;;;;;5021703;28;20072;-73
2022/01/01 10:31:21;;;;;;;0.75;0.75;;;;;;;;;;5022206;28;20045;-74
2022/01/01 10:33:47;;;;;;;1.15;1.10;;;;;;;;;;5027569;28;20025;-73
2022/01/01 10:36:14;;;;;;;2.47;2.08;;;;;;;;;;5024801;28;20120;-73
2022/01/01 10:38:41;;;;;;;2.05;1.40;;;;;;;;;;5028376;28;20504;-73
2022/01/01 10:41:13;;;;;;;1.48;0.68;;;;;;;;;;5027082;28;20388;-73
2022/01/01 10:43:40;;;;;;;4.28;1.95;;;;;;;;;;5020337;28;20048;-74
2022/01/01 10:46:07;;;;;;;14.30;1.70;;;;;;;;;;5032563;28;20426;-73
2022/01/01 10:51:05;;;;;;;8.02;4.00;;;;;;;;;;5024890;28;20061;-73
2022/01/01 10:53:31;;;;;;;1.17;1.10;;;;;;;;;;5025233;28;20476;-73
2022/01/01 10:55:58;;;;;;;1.55;1.45;;;;;;;;;;5024912;28;20037;-73
2022/01/01 10:58:26;;;;;;;2.10;0.82;;;;;;;;;;5026381;28;20113;-73
2022/01/01 11:00:53;;;;;;;1.27;0.85;;;;;;;;;;5030692;28;20156;-73
2022/01/01 11:03:19;;;;;;;1.08;1.08;;;;;;;;;;5027825;28;20026;-73
2022/01/01 11:05:47;;;;;;;2.13;1.88;;;;;;;;;;5024894;28;20097;-74
2022/01/01 11:08:13;;;;;;;0.68;0.68;;;;;;;;;;5024174;28;20026;-70
2022/01/01 11:10:40;;;;;;;0.43;0.43;;;;;;;;;;5029507;28;20030;-74
2022/01/01 11:13:07;;;;;;;1.95;1.30;;;;;;;;;;5022409;28;20104;-72
2022/01/01 11:15:33;;;;;;;4.00;1.05;;;;;;;;;;5024312;28;20029;-72
2022/01/01 11:17:59;;;;;;;1.55;1.33;;;;;;;;;;5026654;28;20400;-72
2022/01/01 11:20:27;;;;;;;3.95;2.40;;;;;;;;;;5025735;28;20116;-73
2022/01/01 11:22:52;;;;;;;2.00;1.00;;;;;;;;;;5027372;28;20050;-74
2022/01/01 11:25:19;;;;;;;1.35;0.55;;;;;;;;;;5033049;28;20044;-74
2022/01/01 11:27:45;;;;;;;1.80;1.40;;;;;;;;;;5025852;28;20156;-71
2022/01/01 11:30:13;;;;;;;6.32;2.08;;;;;;;;;;5024462;28;20099;-71
2022/01/01 11:32:52;;;;;;;0.75;0.40;;;;;;;;;;5025351;28;20036;-73
2022/01/01 11:35:20;;;;;;;0.75;0.75;;;;;;;;;;5027447;28;20129;-72
2022/01/01 11:37:56;;;;;;;5.78;2.13;;;;;;;;;;5027394;28;20022;-71
2022/01/01 11:40:22;;;;;;;2.92;1.48;;;;;;;;;;5026237;28;20022;-69
2022/01/01 11:42:48;;;;;;;8.98;4.60;;;;;;;;;;5035745;28;20052;-69
2022/01/01 11:45:40;;;;;;;1.67;1.58;;;;;;;;;;5030837;28;20119;-69
2022/01/01 11:48:06;;;;;;;;;;;;;;;;;;5025964;28;20320;-71
2022/01/01 11:50:44;;;;;;;3.70;0.82;;;;;;;;;;5018913;28;19948;-67
2022/01/01 11:53:26;;;;;;;1.33;1.20;;;;;;;;;;5027841;28;20400;-67
2022/01/01 11:56:03;;;;;;;4.85;2.33;;;;;;;;;;5028273;28;20032;-68
2022/01/01 11:58:45;;;;;;;0.40;0.40;;;;;;;;;;5022450;28;20266;-69
2022/01/01 12:01:11;;;;;;;3.95;1.10;;;;;;;;;;5028981;28;20028;-68
2022/01/01 12:03:48;;;;;;;1.13;1.10;;;;;;;;;;5025199;28;20033;-68
2022/01/01 12:06:14;;;;;;;1.23;1.13;;;;;;;;;;5027171;28;20485;-68
2022/01/01 12:08:41;;;;;;;4.03;1.48;;;;;;;;;;5026200;28;20040;-68
2022/01/01 12:11:27;;;;;;;4.80;1.88;;;;;;;;;;5026093;28;20053;-70
2022/01/01 12:13:56;;;;;;;0.73;0.73;;;;;;;;;;5016825;28;20037;-70
2022/01/01 12:16:22;;;;;;;0.57;0.57;;;;;;;;;;5018006;28;20037;-70
2022/01/01 12:18:48;;;;;;;13.32;2.08;;;;;;;;;;5025915;28;20043;-70
2022/01/01 12:21:21;;;;;;;5.15;2.47;;;;;;;;;;5024631;28;20212;-69
2022/01/01 12:23:48;;;;;;;1.08;1.05;;;;;;;;;;5026133;28;20120;-67
2022/01/01 12:26:15;;;;;;;0.85;0.85;;;;;;;;;;5020056;28;20060;-72
2022/01/01 12:28:43;;;;;;;0.50;0.50;;;;;;;;;;5031827;28;21391;-70
2022/01/01 12:31:12;;;;;;;1.15;1.02;;;;;;;;;;5025394;28;20063;-69
2022/01/01 12:33:44;;;;;;;1.48;1.38;;;;;;;;;;5017762;28;20064;-69
2022/01/01 12:36:11;;;;;;;8.85;1.85;;;;;;;;;;5022895;28;20021;-69
2022/01/01 12:38:40;;;;;;;0.50;0.50;;;;;;;;;;5024502;28;20048;-73
2022/01/01 12:41:17;;;;;;;0.85;0.85;;;;;;;;;;5026062;28;20154;-70
2022/01/01 12:43:47;;;;;;;1.10;0.80;;;;;;;;;;5026150;28;20447;-69
2022/01/01 12:46:13;;;;;;;0.63;0.63;;;;;;;;;;5021929;28;20026;-69
2022/01/01 12:48:39;;;;;;;0.55;0.55;;;;;;;;;;5025421;28;20034;-71
2022/01/01 12:51:06;;;;;;;1.67;1.42;;;;;;;;;;5024752;28;20025;-71
2022/01/01 12:53:33;;;;;;;2.83;1.38;;;;;;;;;;5024071;28;20111;-70
2022/01/01 12:56:04;;;;;;;1.27;1.17;;;;;;;;;;5025869;28;20095;-71
2022/01/01 12:58:34;;;;;;;4.57;1.30;;;;;;;;;;5024128;28;20652;-70
2022/01/01 13:01:07;;;;;;;0.82;0.82;;;;;;;;;;5024121;28;20029;-71
2022/01/01 13:03:33;;;;;;;1.08;1.08;;;;;;;;;;5028485;28;20029;-71
2022/01/01 13:05:59;;;;;;;3.75;1.92;;;;;;;;;;5026296;28;20400;-72
2022/01/01 13:08:25;;;;;;;2.53;1.63;;;;;;;;;;5023714;28;20686;-71
2022/01/01 13:10:51;;;;;;;2.72;1.42;;;;;;;;;;5021652;28;20018;-71
2022/01/01 13:13:23;;;;;;;0.52;0.47;;;;;;;;;;5021620;28;20488;-71
2022/01/01 13:15:49;;;;;;;0.70;0.70;;;;;;;;;;5024078;28;20092;-71
2022/01/01 13:18:16;;;;;;;0.93;0.93;;;;;;;;;;5033304;28;20111;-80
2022/01/01 13:20:42;;;;;;;2.97;2.30;;;;;;;;;;5021183;28;20106;-83
2022/01/01 13:23:17;;;;;;;0.90;0.90;;;;;;;;;;5025551;28;20052;-71
2022/01/01 13:25:43;;;;;;;10.70;1.98;;;;;;;;;;5028309;28;20064;-71
2022/01/01 13:28:09;;;;;;;1.45;0.95;;;;;;;;;;5027989;28;20057;-71
2022/01/01 13:30:34;;;;;;;1.70;1.10;;;;;;;;;;5026058;28;20032;-71
2022/01/01 13:33:02;;;;;;;5.68;2.58;;;;;;;;;;5023953;28;20025;-71
2022/01/01 13:35:29;;;;;;;14.05;3.22;;;;;;;;;;5030668;28;20052;-71
2022/01/01 13:37:55;;;;;;;1.52;1.13;;;;;;;;;;5031316;28;20032;-70
2022/01/01 13:40:22;;;;;;;0.68;0.60;;;;;;;;;;5027156;28;20091;-70
2022/01/01 13:42:48;;;;;;;1.98;1.85;;;;;;;;;;5027096;28;20407;-70
2022/01/01 13:45:14;;;;;;;1.48;1.42;;;;;;;;;;5025552;28;20386;-71
2022/01/01 13:47:40;;;;;;;1.10;1.08;;;;;;;;;;5024493;28;20057;-70
2022/01/01 13:50:13;;;;;;;1.52;1.15;;;;;;;;;;5026227;28;20037;-70
2022/01/01 13:52:40;;;;;;;3.20;1.58;;;;;;;;;;5026185;28;20037;-71
2022/01/01 13:55:08;;;;;;;9.75;2.25;;;;;;;;;;5021403;28;20121;-70
2022/01/01 13:57:38;;;;;;;0.75;0.75;;;;;;;;;;5027988;28;20025;-70
2022/01/01 14:00:05;;;;;;;2.40;1.42;;;;;;;;;;5029290;28;20044;-69
2022/01/01 14:02:32;;;;;;;3.22;1.42;;;;;;;;;;5030363;28;20357;-69
2022/01/01 14:05:02;;;;;;;1.13;1.08;;;;;;;;;;5027008;28;20393;-69
2022/01/01 14:07:28;;;;;;;0.82;0.82;;;;;;;;;;5024287;28;20538;-69
2022/01/01 14:09:58;;;;;;;2.20;1.67;;;;;;;;;;5024138;28;20041;-69
2022/01/01 14:12:25;;;;;;;1.67;1.58;;;;;;;;;;5020527;28;20492;-69
2022/01/01 14:14:52;;;;;;;1.42;1.33;;;;;;;;;;5031128;28;20048;-69
2022/01/01 14:17:18;;;;;;;0.63;0.63;;;;;;;;;;5023548;28;20026;-70
2022/01/01 14:19:44;;;;;;;0.85;0.85;;;;;;;;;;5025299;28;20132;-70
2022/01/01 14:22:10;;;;;;;2.40;1.80;;;;;;;;;;5020456;28;20029;-70
2022/01/01 14:24:48;;;;;;;0.38;0.38;;;;;;;;;;5023036;28;20075;-71
2022/01/01 14:27:14;;;;;;;5.70;1.33;;;;;;;;;;5025372;28;20084;-70
2022/01/01 14:29:40;;;;;;;1.55;1.45;;;;;;;;;;5025131;28;20026;-70
2022/01/01 14:32:06;;;;;;;1.88;1.63;;;;;;;;;;5021943;28;20485;-71
2022/01/01 14:34:32;;;;;;;1.40;1.30;;;;;;;;;;5028907;28;20432;-71
2022/01/01 14:36:58;;;;;;;1.35;1.27;;;;;;;;;;5026443;28;20079;-70
2022/01/01 14:39:24;;;;;;;1.67;1.58;;;;;;;;;;5026903;28;20392;-71
2022/01/01 14:41:50;;;;;;;1.63;1.52;;;;;;;;;;5024874;28;20108;-70
2022/01/01 14:44:16;;;;;;;2.63;1.17;;;;;;;;;;5028089;28;20044;-77
2022/01/01 14:46:46;;;;;;;1.42;0.60;;;;;;;;;;5028440;28;20033;-79
2022/01/01 14:49:22;;;;;;;1.35;1.25;;;;;;;;;;5025475;28;20045;-71